sensor_id;sensor_type;location;lat;lon;timestamp;pressure;altitude;pressure_sealevel;temperature;humidity
75972;BME280;64651;47.540;19.088;2023-08-20T00:04:27;100728.78;;;22.11;91.11
75972;BME280;64651;47.540;19.088;2023-08-20T00:09:34;100721.78;;;22.05;91.56
75972;BME280;64651;47.540;19.088;2023-08-20T00:15:01;100711.03;;;21.95;91.88
75972;BME280;64651;47.540;19.088;2023-08-20T00:20:09;100717.53;;;21.87;92.91
75972;BME280;64651;47.540;19.088;2023-08-20T00:25:21;100719.41;;;21.83;92.97
75972;BME280;64651;47.540;19.088;2023-08-20T00:30:26;100715.37;;;21.72;93.59
75972;BME280;64651;47.540;19.088;2023-08-20T00:35:33;100722.50;;;21.69;94.47
75972;BME280;64651;47.540;19.088;2023-08-20T00:40:45;100708.25;;;21.62;94.65
75972;BME280;64651;47.540;19.088;2023-08-20T00:46:03;100710.22;;;21.62;94.54
75972;BME280;64651;47.540;19.088;2023-08-20T00:51:08;100699.00;;;21.50;95.35
75972;BME280;64651;47.540;19.088;2023-08-20T00:56:29;100699.69;;;21.47;95.18
75972;BME280;64651;47.540;19.088;2023-08-20T01:02:08;100715.53;;;21.42;95.39
75972;BME280;64651;47.540;19.088;2023-08-20T01:14:01;100717.41;;;21.38;95.81
75972;BME280;64651;47.540;19.088;2023-08-20T01:20:00;100722.78;;;21.43;95.66
75972;BME280;64651;47.540;19.088;2023-08-20T01:31:17;100727.94;;;21.54;94.53
75972;BME280;64651;47.540;19.088;2023-08-20T01:43:17;100721.13;;;21.42;94.42
75972;BME280;64651;47.540;19.088;2023-08-20T01:48:30;100721.09;;;21.30;94.97
75972;BME280;64651;47.540;19.088;2023-08-20T01:54:18;100728.75;;;21.21;95.71
75972;BME280;64651;47.540;19.088;2023-08-20T01:59:34;100720.97;;;21.27;95.92
75972;BME280;64651;47.540;19.088;2023-08-20T02:04:51;100725.81;;;21.18;96.41
75972;BME280;64651;47.540;19.088;2023-08-20T02:10:26;100728.66;;;21.09;96.99
75972;BME280;64651;47.540;19.088;2023-08-20T02:15:46;100723.75;;;21.06;97.38
75972;BME280;64651;47.540;19.088;2023-08-20T02:21:19;100717.19;;;21.02;97.52
75972;BME280;64651;47.540;19.088;2023-08-20T02:27:00;100719.19;;;21.01;97.71
75972;BME280;64651;47.540;19.088;2023-08-20T02:32:05;100719.66;;;21.03;97.96
75972;BME280;64651;47.540;19.088;2023-08-20T02:37:22;100719.38;;;20.96;98.19
75972;BME280;64651;47.540;19.088;2023-08-20T02:42:40;100721.09;;;20.89;98.29
75972;BME280;64651;47.540;19.088;2023-08-20T02:47:56;100727.84;;;20.88;98.82
75972;BME280;64651;47.540;19.088;2023-08-20T02:53:17;100721.91;;;20.89;98.36
75972;BME280;64651;47.540;19.088;2023-08-20T02:58:34;100729.75;;;20.96;98.30
75972;BME280;64651;47.540;19.088;2023-08-20T03:03:52;100721.78;;;20.86;98.36
75972;BME280;64651;47.540;19.088;2023-08-20T03:09:29;100719.88;;;20.78;98.56
75972;BME280;64651;47.540;19.088;2023-08-20T03:14:43;100719.53;;;20.79;98.60
75972;BME280;64651;47.540;19.088;2023-08-20T03:20:02;100730.44;;;20.93;97.91
75972;BME280;64651;47.540;19.088;2023-08-20T03:25:26;100730.34;;;20.81;97.98
75972;BME280;64651;47.540;19.088;2023-08-20T03:31:11;100735.69;;;20.74;98.16
75972;BME280;64651;47.540;19.088;2023-08-20T03:37:19;100728.16;;;20.65;98.14
75972;BME280;64651;47.540;19.088;2023-08-20T03:43:23;100737.09;;;20.59;98.66
75972;BME280;64651;47.540;19.088;2023-08-20T03:49:48;100732.94;;;20.65;98.53
75972;BME280;64651;47.540;19.088;2023-08-20T03:55:50;100750.00;;;20.72;98.09
75972;BME280;64651;47.540;19.088;2023-08-20T04:01:54;100756.13;;;20.65;98.33
75972;BME280;64651;47.540;19.088;2023-08-20T04:07:11;100753.72;;;20.85;97.57
75972;BME280;64651;47.540;19.088;2023-08-20T04:19:48;100754.59;;;20.97;96.14
75972;BME280;64651;47.540;19.088;2023-08-20T04:32:19;100765.50;;;21.11;95.25
75972;BME280;64651;47.540;19.088;2023-08-20T04:44:40;100775.19;;;21.22;94.71
75972;BME280;64651;47.540;19.088;2023-08-20T04:56:31;100779.47;;;21.40;93.58
75972;BME280;64651;47.540;19.088;2023-08-20T05:09:28;100787.16;;;21.64;92.71
75972;BME280;64651;47.540;19.088;2023-08-20T08:10:02;100804.97;;;35.04;41.26
75972;BME280;64651;47.540;19.088;2023-08-20T08:15:29;100803.56;;;35.35;39.76
75972;BME280;64651;47.540;19.088;2023-08-20T08:21:58;100807.72;;;35.90;39.05
75972;BME280;64651;47.540;19.088;2023-08-20T08:28:06;100804.81;;;36.62;38.47
75972;BME280;64651;47.540;19.088;2023-08-20T08:35:00;100798.88;;;37.88;35.74
75972;BME280;64651;47.540;19.088;2023-08-20T08:41:05;100806.19;;;39.03;34.02
75972;BME280;64651;47.540;19.088;2023-08-20T08:59:05;100791.66;;;41.92;29.49
75972;BME280;64651;47.540;19.088;2023-08-20T09:11:05;100777.28;;;42.16;28.97
75972;BME280;64651;47.540;19.088;2023-08-20T09:17:21;100786.31;;;43.22;26.89
75972;BME280;64651;47.540;19.088;2023-08-20T09:23:32;100789.09;;;43.31;27.08
75972;BME280;64651;47.540;19.088;2023-08-20T09:29:17;100792.00;;;43.31;27.04
75972;BME280;64651;47.540;19.088;2023-08-20T11:37:31;100689.19;;;46.69;20.21
75972;BME280;64651;47.540;19.088;2023-08-20T11:43:09;100681.84;;;48.47;18.47
75972;BME280;64651;47.540;19.088;2023-08-20T12:00:09;100660.00;;;49.11;18.75
75972;BME280;64651;47.540;19.088;2023-08-20T12:05:49;100661.53;;;49.59;18.03
75972;BME280;64651;47.540;19.088;2023-08-20T12:16:51;100658.56;;;48.88;18.50
75972;BME280;64651;47.540;19.088;2023-08-20T12:38:40;100637.97;;;49.45;18.11
75972;BME280;64651;47.540;19.088;2023-08-20T12:44:12;100628.19;;;51.15;16.57
75972;BME280;64651;47.540;19.088;2023-08-20T12:49:56;100627.31;;;49.72;17.51
75972;BME280;64651;47.540;19.088;2023-08-20T12:55:19;100633.78;;;48.94;18.30
75972;BME280;64651;47.540;19.088;2023-08-20T13:01:19;100622.50;;;49.75;17.74
75972;BME280;64651;47.540;19.088;2023-08-20T13:06:58;100618.97;;;48.29;18.82
75972;BME280;64651;47.540;19.088;2023-08-20T13:12:18;100619.53;;;49.21;17.79
75972;BME280;64651;47.540;19.088;2023-08-20T13:17:36;100599.47;;;50.14;17.12
75972;BME280;64651;47.540;19.088;2023-08-20T13:22:59;100609.87;;;49.61;17.45
75972;BME280;64651;47.540;19.088;2023-08-20T13:28:28;100601.34;;;49.33;17.94
75972;BME280;64651;47.540;19.088;2023-08-20T13:33:53;100609.03;;;48.60;17.68
75972;BME280;64651;47.540;19.088;2023-08-20T13:44:57;100590.66;;;48.65;17.47
75972;BME280;64651;47.540;19.088;2023-08-20T15:36:23;100553.19;;;39.05;29.12
75972;BME280;64651;47.540;19.088;2023-08-20T15:48:57;100557.12;;;38.33;30.42
75972;BME280;64651;47.540;19.088;2023-08-20T16:01:05;100554.06;;;37.55;31.72
75972;BME280;64651;47.540;19.088;2023-08-20T16:06:27;100556.28;;;36.42;33.05
75972;BME280;64651;47.540;19.088;2023-08-20T16:11:30;100568.50;;;35.33;34.70
75972;BME280;64651;47.540;19.088;2023-08-20T16:16:33;100571.25;;;34.22;37.38
75972;BME280;64651;47.540;19.088;2023-08-20T16:21:35;100577.59;;;33.59;40.45
75972;BME280;64651;47.540;19.088;2023-08-20T16:26:39;100571.47;;;33.34;39.53
75972;BME280;64651;47.540;19.088;2023-08-20T16:31:41;100569.25;;;33.18;40.55
75972;BME280;64651;47.540;19.088;2023-08-20T16:36:44;100588.25;;;32.98;42.19
75972;BME280;64651;47.540;19.088;2023-08-20T16:41:46;100580.97;;;32.59;42.48
75972;BME280;64651;47.540;19.088;2023-08-20T16:46:48;100579.56;;;32.41;43.02
75972;BME280;64651;47.540;19.088;2023-08-20T16:51:50;100581.66;;;32.74;42.64
75972;BME280;64651;47.540;19.088;2023-08-20T16:56:52;100583.50;;;32.88;41.10
75972;BME280;64651;47.540;19.088;2023-08-20T17:01:55;100589.41;;;32.70;42.98
75972;BME280;64651;47.540;19.088;2023-08-20T17:06:59;100588.31;;;32.60;42.58
75972;BME280;64651;47.540;19.088;2023-08-20T17:12:01;100589.59;;;32.18;43.77
75972;BME280;64651;47.540;19.088;2023-08-20T17:17:05;100586.19;;;31.90;43.70
75972;BME280;64651;47.540;19.088;2023-08-20T17:22:07;100583.56;;;31.61;45.81
75972;BME280;64651;47.540;19.088;2023-08-20T17:27:09;100594.72;;;31.31;45.42
75972;BME280;64651;47.540;19.088;2023-08-20T17:32:11;100590.41;;;30.94;46.70
75972;BME280;64651;47.540;19.088;2023-08-20T17:37:21;100590.59;;;30.59;48.70
75972;BME280;64651;47.540;19.088;2023-08-20T17:42:24;100595.94;;;30.18;49.49
75972;BME280;64651;47.540;19.088;2023-08-20T17:47:26;100597.16;;;29.85;50.29
75972;BME280;64651;47.540;19.088;2023-08-20T17:52:29;100588.22;;;29.58;51.73
75972;BME280;64651;47.540;19.088;2023-08-20T17:57:32;100593.88;;;29.33;51.32
75972;BME280;64651;47.540;19.088;2023-08-20T18:02:35;100588.91;;;29.05;52.20
75972;BME280;64651;47.540;19.088;2023-08-20T18:07:38;100598.59;;;28.90;52.75
75972;BME280;64651;47.540;19.088;2023-08-20T18:12:40;100598.47;;;28.73;52.94
75972;BME280;64651;47.540;19.088;2023-08-20T18:17:42;100603.75;;;28.74;53.27
75972;BME280;64651;47.540;19.088;2023-08-20T18:22:44;100614.69;;;28.76;52.35
75972;BME280;64651;47.540;19.088;2023-08-20T18:27:46;100620.78;;;28.78;52.57
75972;BME280;64651;47.540;19.088;2023-08-20T18:32:49;100629.87;;;28.46;53.15
75972;BME280;64651;47.540;19.088;2023-08-20T18:37:51;100636.16;;;28.15;54.19
75972;BME280;64651;47.540;19.088;2023-08-20T18:42:54;100641.13;;;27.88;55.81
75972;BME280;64651;47.540;19.088;2023-08-20T18:47:56;100638.94;;;27.67;56.89
75972;BME280;64651;47.540;19.088;2023-08-20T18:52:59;100648.69;;;27.73;56.16
75972;BME280;64651;47.540;19.088;2023-08-20T18:58:01;100658.00;;;27.74;56.47
75972;BME280;64651;47.540;19.088;2023-08-20T19:03:04;100659.97;;;27.70;56.75
75972;BME280;64651;47.540;19.088;2023-08-20T19:08:07;100660.69;;;27.63;57.44
75972;BME280;64651;47.540;19.088;2023-08-20T19:13:09;100656.91;;;27.49;58.15
75972;BME280;64651;47.540;19.088;2023-08-20T19:18:12;100666.75;;;27.28;59.25
75972;BME280;64651;47.540;19.088;2023-08-20T19:23:14;100667.84;;;27.17;59.89
75972;BME280;64651;47.540;19.088;2023-08-20T19:28:16;100681.03;;;27.05;60.51
75972;BME280;64651;47.540;19.088;2023-08-20T19:33:19;100685.53;;;26.84;62.03
75972;BME280;64651;47.540;19.088;2023-08-20T19:38:21;100687.69;;;26.64;63.75
75972;BME280;64651;47.540;19.088;2023-08-20T19:43:24;100694.31;;;26.49;64.68
75972;BME280;64651;47.540;19.088;2023-08-20T19:48:26;100690.47;;;26.34;66.04
75972;BME280;64651;47.540;19.088;2023-08-20T19:53:28;100700.50;;;26.32;64.61
75972;BME280;64651;47.540;19.088;2023-08-20T19:58:30;100701.13;;;26.21;65.36
75972;BME280;64651;47.540;19.088;2023-08-20T20:03:32;100706.62;;;26.14;65.20
75972;BME280;64651;47.540;19.088;2023-08-20T20:08:35;100708.41;;;26.22;64.88
75972;BME280;64651;47.540;19.088;2023-08-20T20:13:40;100714.87;;;26.49;63.67
75972;BME280;64651;47.540;19.088;2023-08-20T20:18:42;100715.25;;;26.74;62.16
75972;BME280;64651;47.540;19.088;2023-08-20T20:23:44;100720.22;;;26.28;63.50
75972;BME280;64651;47.540;19.088;2023-08-20T20:28:46;100714.94;;;26.27;63.62
75972;BME280;64651;47.540;19.088;2023-08-20T20:33:48;100724.87;;;26.20;63.36
75972;BME280;64651;47.540;19.088;2023-08-20T20:38:50;100722.38;;;26.15;63.91
75972;BME280;64651;47.540;19.088;2023-08-20T20:43:53;100730.44;;;26.17;63.42
75972;BME280;64651;47.540;19.088;2023-08-20T20:48:55;100726.00;;;26.16;63.51
75972;BME280;64651;47.540;19.088;2023-08-20T20:53:58;100729.69;;;26.20;63.11
75972;BME280;64651;47.540;19.088;2023-08-20T20:59:00;100736.97;;;26.21;63.21
75972;BME280;64651;47.540;19.088;2023-08-20T21:20:45;100737.63;;;25.50;66.67
75972;BME280;64651;47.540;19.088;2023-08-20T21:25:48;100735.19;;;25.29;67.76
75972;BME280;64651;47.540;19.088;2023-08-20T21:30:51;100734.16;;;25.18;68.67
75972;BME280;64651;47.540;19.088;2023-08-20T21:35:53;100740.47;;;25.11;69.29
75972;BME280;64651;47.540;19.088;2023-08-20T21:40:56;100756.66;;;24.98;69.72
75972;BME280;64651;47.540;19.088;2023-08-20T21:45:58;100749.59;;;24.89;70.37
75972;BME280;64651;47.540;19.088;2023-08-20T21:51:00;100759.88;;;24.81;71.33
75972;BME280;64651;47.540;19.088;2023-08-20T21:56:03;100748.13;;;24.95;70.37
75972;BME280;64651;47.540;19.088;2023-08-20T22:01:07;100748.69;;;24.85;70.99
75972;BME280;64651;47.540;19.088;2023-08-20T22:06:09;100752.78;;;24.72;71.92
75972;BME280;64651;47.540;19.088;2023-08-20T22:11:12;100747.75;;;24.61;72.31
75972;BME280;64651;47.540;19.088;2023-08-20T22:16:14;100753.38;;;24.46;73.98
75972;BME280;64651;47.540;19.088;2023-08-20T22:21:17;100755.56;;;24.37;74.85
75972;BME280;64651;47.540;19.088;2023-08-20T22:26:20;100757.31;;;24.25;75.65
75972;BME280;64651;47.540;19.088;2023-08-20T22:31:23;100759.44;;;24.16;76.33
75972;BME280;64651;47.540;19.088;2023-08-20T22:36:26;100756.81;;;24.08;77.15
75972;BME280;64651;47.540;19.088;2023-08-20T22:41:28;100758.16;;;23.98;78.21
75972;BME280;64651;47.540;19.088;2023-08-20T22:46:30;100763.97;;;23.90;78.89
75972;BME280;64651;47.540;19.088;2023-08-20T22:51:33;100769.59;;;23.90;79.33
75972;BME280;64651;47.540;19.088;2023-08-20T22:56:35;100769.84;;;23.84;80.07
75972;BME280;64651;47.540;19.088;2023-08-20T23:01:37;100760.69;;;23.87;80.13
75972;BME280;64651;47.540;19.088;2023-08-20T23:06:40;100753.41;;;23.86;79.85
75972;BME280;64651;47.540;19.088;2023-08-20T23:11:42;100747.81;;;23.86;79.31
75972;BME280;64651;47.540;19.088;2023-08-20T23:16:45;100745.63;;;23.80;79.60
75972;BME280;64651;47.540;19.088;2023-08-20T23:21:47;100749.31;;;23.68;80.30
75972;BME280;64651;47.540;19.088;2023-08-20T23:26:49;100754.72;;;23.61;80.78
75972;BME280;64651;47.540;19.088;2023-08-20T23:31:51;100758.87;;;23.52;81.78
75972;BME280;64651;47.540;19.088;2023-08-20T23:36:54;100757.47;;;23.45;82.47
75972;BME280;64651;47.540;19.088;2023-08-20T23:41:56;100765.34;;;23.40;82.96
75972;BME280;64651;47.540;19.088;2023-08-20T23:46:58;100759.72;;;23.40;82.67
75972;BME280;64651;47.540;19.088;2023-08-20T23:52:00;100761.72;;;23.39;82.41
75972;BME280;64651;47.540;19.088;2023-08-20T23:57:03;100765.47;;;23.31;82.58
